Latest Weather Observations for Penrith

IDN60901

Issued at 5:11 pm EST Wednesday 20 June 2018 (issued every 10 minutes, with the page automatically refreshed every 10 minutes)

About weather observations | Map of Sydney area stations | Latest observations for Sydney area | Other Formats
Station Details ID: 067113 Name: PENRITH LAKES AWS Lat: -33.72 Lon: 150.68 Height: 24.7 m
Data from the previous 72 hours. | See also: Recent months at Penrith
Date/Time
EST
Temp
°C
App
Temp
°C
Dew
Point
°C
Rel
Hum
%
Delta-T
°C
Wind Press
QNH
hPa
Press
MSL
hPa
Rain since
9am
mm
Dir  Spd
km/h
Gust
km/h
Spd
kts
Gust
kts
20/05:00pm 14.6 12.5 8.1 65 3.3 SE 9 11 5 6 - - 0.0
20/04:30pm 15.5 13.7 8.0 61 3.8 SSE 7 13 4 7 - - 0.0
20/04:00pm 16.3 14.5 8.0 58 4.2 SE 7 11 4 6 - - 0.0
20/03:30pm 16.8 15.6 8.2 57 4.4 SSW 4 6 2 3 - - 0.0
20/03:00pm 17.0 13.9 7.1 52 4.9 S 13 20 7 11 - - 0.0
20/02:30pm 18.2 16.4 7.9 51 5.3 SSW 7 13 4 7 - - 0.0
20/02:00pm 16.9 14.4 8.1 56 4.5 SSE 11 19 6 10 - - 0.0
20/01:30pm 16.6 13.4 8.3 58 4.2 SSE 15 22 8 12 - - 0.0
20/01:00pm 17.2 14.4 8.6 57 4.4 S 13 19 7 10 - - 0.0
20/12:30pm 17.1 13.9 8.3 56 4.5 SSE 15 22 8 12 - - 0.0
20/12:00pm 17.0 14.6 8.7 58 4.3 SSW 11 17 6 9 - - 0.0
20/11:30am 16.9 14.0 8.3 57 4.4 SSE 13 20 7 11 - - 0.0
20/11:00am 17.0 14.2 8.7 58 4.3 SSW 13 22 7 12 - - 0.0
20/10:30am 16.3 13.6 9.0 62 3.8 SSW 13 19 7 10 - - 0.0
20/10:00am 15.8 12.4 9.0 64 3.5 SSW 17 22 9 12 - - 0.0
20/09:30am 15.1 12.4 9.0 67 3.1 SSW 13 20 7 11 - - 0.0
20/09:00am 14.2 11.4 8.6 69 2.8 SSW 13 19 7 10 - - 4.0
20/08:30am 13.2 10.8 8.7 74 2.3 SW 11 15 6 8 - - 4.0
20/08:00am 12.4 10.0 8.5 77 1.9 SSW 11 17 6 9 - - 4.0
20/07:30am 11.4 8.9 8.3 81 1.5 SSW 11 17 6 9 - - 4.0
20/07:00am 11.1 8.7 8.7 85 1.2 SSW 11 17 6 9 - - 4.0
20/06:30am 10.3 8.7 8.6 89 0.8 SSW 7 9 4 5 - - 4.0
20/06:00am 10.1 8.6 8.5 90 0.8 SSW 6 9 3 5 - - 4.0
20/05:30am 10.2 8.7 8.6 90 0.8 S 6 7 3 4 - - 4.0
20/05:00am 11.0 9.4 8.6 85 1.2 SSW 7 13 4 7 - - 4.0
20/04:30am 11.3 9.4 8.9 85 1.2 S 9 15 5 8 - - 4.0
20/04:00am 11.8 9.5 9.0 83 1.4 SSW 11 15 6 8 - - 4.0
20/03:30am 12.0 9.0 9.4 84 1.3 SSW 15 22 8 12 - - 4.0
20/03:00am 11.9 9.8 9.8 87 1.1 SW 11 15 6 8 - - 4.0
20/02:30am 12.4 10.0 10.0 85 1.2 SSW 13 19 7 10 - - 4.0
20/02:00am 12.9 9.6 9.5 80 1.7 SSW 17 26 9 14 - - 3.8
20/01:30am 13.1 10.0 9.0 76 2.1 SSW 15 24 8 13 - - 3.8
20/01:00am 13.2 9.8 9.1 76 2.1 SW 17 24 9 13 - - 3.8
20/12:30am 12.8 10.1 9.1 78 1.9 SW 13 20 7 11 - - 3.8
20/12:00am 12.4 9.7 9.1 80 1.7 SSW 13 19 7 10 - - 3.8
 
Date/Time
EST
Temp
°C
App
Temp
°C
Dew
Point
°C
Rel
Hum
%
Delta-T
°C
Wind Press
QNH
hPa
Press
MSL
hPa
Rain since
9am
mm
Dir  Spd
km/h
Gust
km/h
Spd
kts
Gust
kts
19/11:30pm 12.3 9.2 9.0 80 1.7 SW 15 20 8 11 - - 3.8
19/11:00pm 12.1 9.4 8.9 81 1.6 SW 13 20 7 11 - - 3.8
19/10:30pm 12.1 9.4 8.9 81 1.6 SSW 13 19 7 10 - - 3.8
19/10:00pm 12.2 10.0 9.2 82 1.5 SSW 11 19 6 10 - - 3.8
19/09:30pm 12.1 9.9 9.5 84 1.3 SSW 11 17 6 9 - - 3.8
19/09:00pm 12.1 10.0 9.7 85 1.2 SSW 11 15 6 8 - - 3.6
19/08:30pm 11.7 9.8 8.9 83 1.4 SSW 9 15 5 8 - - 3.2
19/08:00pm 11.4 10.0 9.5 88 1.0 S 7 9 4 5 - - 3.2
19/07:30pm 11.8 10.1 9.7 87 1.1 SSW 9 13 5 7 - - 3.2
19/07:00pm 12.9 10.1 8.6 75 2.1 SSW 13 26 7 14 - - 3.0
19/06:30pm 12.7 9.9 8.4 75 2.1 SSW 13 20 7 11 - - 3.0
19/06:00pm 12.7 9.9 8.4 75 2.1 SSW 13 26 7 14 - - 3.0
19/05:30pm 12.6 10.1 8.3 75 2.1 SSW 11 17 6 9 - - 3.0
19/05:00pm 12.9 9.3 8.4 74 2.2 SW 17 24 9 13 - - 3.0
19/04:30pm 13.9 10.1 8.9 72 2.5 SW 19 30 10 16 - - 3.0
19/04:00pm 14.3 10.4 9.3 72 2.6 SW 20 28 11 15 - - 3.0
19/03:30pm 14.4 11.2 10.0 75 2.3 SW 17 26 9 14 - - 3.0
19/03:00pm 13.8 11.2 10.6 81 1.7 SW 15 26 8 14 - - 3.0
19/02:30pm 12.3 10.1 10.9 91 0.7 SW 13 19 7 10 - - 3.0
19/02:00pm 11.8 7.0 10.4 91 0.7 SSW 26 50 14 27 - - 2.8
19/01:30pm 14.2 11.5 10.4 78 2.0 SW 15 24 8 13 - - 1.2
19/01:00pm 12.4 10.1 10.6 89 0.9 SSW 13 20 7 11 - - 1.2
19/12:30pm 13.0 9.2 9.1 77 2.0 S 19 30 10 16 - - 0.4
19/12:00pm 14.3 10.3 9.1 71 2.6 SSW 20 30 11 16 - - 0.0
19/11:30am 15.6 12.3 7.9 60 3.9 SSW 15 24 8 13 - - 0.0
19/11:00am 14.4 10.1 7.9 65 3.2 SSW 20 33 11 18 - - 0.0
19/10:30am 15.1 10.8 7.9 62 3.6 SSW 20 33 11 18 - - 0.0
19/10:00am 14.4 9.3 7.7 64 3.3 SW 24 37 13 20 - - 0.0
19/09:30am 14.1 8.9 7.2 63 3.4 SSW 24 41 13 22 - - 0.0
19/09:00am 13.3 8.7 6.6 64 3.2 SSW 20 30 11 16 - - 2.6
19/08:30am 12.2 7.6 6.5 68 2.7 SSW 20 30 11 16 - - 2.6
19/08:00am 12.2 7.8 6.5 68 2.7 SSW 19 30 10 16 - - 2.6
19/07:30am 12.0 7.4 6.5 69 2.6 SSW 20 32 11 17 - - 2.6
19/07:00am 11.7 5.9 6.4 70 2.5 SW 26 37 14 20 - - 2.6
19/06:30am 11.5 7.8 6.2 70 2.5 SSW 15 24 8 13 - - 2.4
19/06:00am 10.4 7.5 6.5 77 1.8 SSW 11 22 6 12 - - 2.4
19/05:30am 10.0 7.1 6.5 79 1.6 SSW 11 15 6 8 - - 2.4
19/05:00am 10.4 5.9 6.0 74 2.0 SW 19 28 10 15 - - 2.2
19/04:30am 11.5 7.0 4.3 61 3.2 SW 17 24 9 13 - - 2.0
19/04:00am 11.3 6.9 4.5 63 3.1 SSW 17 28 9 15 - - 2.0
19/03:30am 11.3 6.5 4.5 63 3.1 SSW 19 32 10 17 - - 2.0
19/03:00am 11.3 6.8 4.3 62 3.1 SSW 17 26 9 14 - - 2.0
19/02:30am 11.1 7.0 4.1 62 3.1 SW 15 24 8 13 - - 2.0
19/02:00am 10.7 6.9 4.0 63 3.0 SW 13 20 7 11 - - 2.0
19/01:30am 10.7 6.1 3.7 62 3.1 SW 17 30 9 16 - - 2.0
19/01:00am 10.8 6.2 3.8 62 3.1 SW 17 28 9 15 - - 2.0
19/12:30am 10.5 7.1 3.8 63 3.0 SSW 11 19 6 10 - - 2.0
19/12:00am 9.9 6.6 4.5 69 2.4 SSW 11 17 6 9 - - 2.0
 
Date/Time
EST
Temp
°C
App
Temp
°C
Dew
Point
°C
Rel
Hum
%
Delta-T
°C
Wind Press
QNH
hPa
Press
MSL
hPa
Rain since
9am
mm
Dir  Spd
km/h
Gust
km/h
Spd
kts
Gust
kts
18/11:30pm 9.9 7.1 5.1 72 2.2 SSW 9 15 5 8 - - 2.0
18/11:00pm 9.9 7.3 5.9 76 1.8 SSW 9 13 5 7 - - 2.0
18/10:30pm 10.1 7.7 7.0 81 1.5 SW 9 17 5 9 - - 2.0
18/10:00pm 9.2 7.4 7.8 91 0.7 S 7 9 4 5 - - 2.0
18/09:30pm 9.9 8.4 8.5 91 0.7 SSW 6 9 3 5 - - 2.0
18/09:00pm 10.2 8.8 8.8 91 0.7 SSW 6 9 3 5 - - 2.0
18/08:30pm 10.4 7.7 9.0 91 0.7 SSW 13 26 7 14 - - 2.0
18/08:00pm 10.5 6.6 9.6 94 0.5 S 20 32 11 17 - - 1.2
18/07:30pm 12.5 8.4 7.8 73 2.3 SSE 19 26 10 14 - - 0.0
18/07:00pm 13.3 10.7 6.2 62 3.4 S 9 17 5 9 - - 0.0
18/06:30pm 14.2 10.4 5.6 56 4.1 SW 15 22 8 12 - - 0.0
18/06:00pm 14.2 10.0 5.6 56 4.1 SW 17 22 9 12 - - 0.0
18/05:30pm 14.2 11.0 5.0 54 4.3 WSW 11 15 6 8 - - 0.0
18/05:00pm 15.5 12.1 3.9 46 5.4 SW 11 17 6 9 - - 0.0
18/04:30pm 16.8 12.3 4.2 43 5.9 WSW 17 22 9 12 - - 0.0
18/04:00pm 17.4 12.3 3.3 39 6.5 SSW 19 28 10 15 - - 0.0
18/03:30pm 18.0 12.3 3.1 37 6.9 SW 22 33 12 18 - - 0.0
18/03:00pm 17.6 12.3 3.1 38 6.7 SW 20 32 11 17 - - 0.0
18/02:30pm 17.6 12.3 3.1 38 6.7 SW 20 30 11 16 - - 0.0
18/02:00pm 17.6 12.6 3.5 39 6.6 SW 19 32 10 17 - - 0.0
18/01:30pm 16.8 13.1 4.2 43 5.9 SSW 13 17 7 9 - - 0.0
18/01:00pm 16.7 12.1 3.7 42 6.0 SW 17 26 9 14 - - 0.0
18/12:30pm 17.8 11.9 4.0 40 6.5 SW 24 35 13 19 - - 0.0
18/12:00pm 17.4 11.5 4.0 41 6.3 SSW 24 37 13 20 - - 0.0
18/11:30am 16.6 10.3 4.0 43 5.9 SSW 26 39 14 21 - - 0.0
18/11:03am 15.9 9.3 4.0 45 5.5 SSW 28 48 15 26 - - 0.0
18/11:00am 16.2 10.3 3.9 44 5.7 SSW 24 35 13 19 - - 0.0
18/10:30am 15.3 7.7 4.1 47 5.2 SW 33 54 18 29 - - 0.0
18/10:22am 15.3 8.7 4.1 47 5.2 SW 28 52 15 28 - - 0.0
18/10:00am 15.1 10.0 3.9 47 5.1 SSW 20 35 11 19 - - 0.0
18/09:30am 13.6 8.4 3.7 51 4.5 SW 20 30 11 16 - - 0.0
18/09:00am 13.4 8.2 3.8 52 4.3 SW 20 32 11 17 - - 0.0
18/08:30am 12.9 8.3 3.6 53 4.2 SW 17 24 9 13 - - 0.0
18/08:00am 12.6 7.9 3.3 53 4.1 SW 17 26 9 14 - - 0.0
18/07:30am 12.2 7.9 3.2 54 4.0 SW 15 24 8 13 - - 0.0
18/07:00am 12.2 7.5 3.4 55 3.9 SW 17 32 9 17 - - 0.0
18/06:30am 11.9 7.2 3.4 56 3.8 SW 17 28 9 15 - - 0.0
18/06:00am 11.8 8.3 3.6 57 3.6 SW 11 20 6 11 - - 0.0
18/05:30am 11.8 8.0 4.1 59 3.5 SW 13 28 7 15 - - 0.0
18/05:00am 11.3 7.6 4.3 62 3.1 SW 13 20 7 11 - - 0.0
18/04:30am 11.4 6.5 4.2 61 3.2 SW 19 28 10 15 - - 0.0
18/04:00am 11.6 6.7 4.3 61 3.3 SW 19 28 10 15 - - 0.0
18/03:30am 11.6 6.7 4.1 60 3.4 SW 19 32 10 17 - - 0.0
18/03:00am 11.9 7.0 4.2 59 3.5 SW 19 28 10 15 - - 0.0
18/02:30am 11.9 7.4 4.2 59 3.5 SW 17 26 9 14 - - 0.0
18/02:00am 10.2 8.7 5.0 70 2.4 SSW 2 6 1 3 - - 0.0
18/01:30am 10.2 8.3 5.0 70 2.4 N 4 7 2 4 - - 0.0
18/01:00am 10.2 8.9 4.1 66 2.7 CALM 0 0 0 0 - - 0.0
18/12:30am 10.3 8.5 3.6 63 2.9 SSW 2 4 1 2 - - 0.0
18/12:00am 10.4 7.1 2.7 59 3.3 ESE 9 13 5 7 - - 0.0
 
Date/Time
EST
Temp
°C
App
Temp
°C
Dew
Point
°C
Rel
Hum
%
Delta-T
°C
Wind Press
QNH
hPa
Press
MSL
hPa
Rain since
9am
mm
Dir  Spd
km/h
Gust
km/h
Spd
kts
Gust
kts
17/11:30pm 11.6 8.4 2.9 55 3.8 WNW 9 19 5 10 - - 0.0
17/11:00pm 11.8 7.4 2.8 54 3.9 WNW 15 28 8 15 - - 0.0
17/10:30pm 12.1 7.7 2.8 53 4.1 WNW 15 30 8 16 - - 0.0
17/10:00pm 11.4 7.8 2.7 55 3.8 W 11 19 6 10 - - 0.0
17/09:30pm 11.1 7.8 2.4 55 3.7 WNW 9 13 5 7 - - 0.0
17/09:00pm 10.5 7.8 2.8 59 3.3 NNE 6 11 3 6 - - 0.0
17/08:30pm 10.3 7.0 2.2 57 3.4 WNW 9 17 5 9 - - 0.0
17/08:00pm 11.1 7.0 2.4 55 3.7 WNW 13 19 7 10 - - 0.0
17/07:30pm 10.6 6.7 3.4 61 3.1 NW 13 17 7 9 - - 0.0
17/07:00pm 11.1 6.6 2.4 55 3.7 NW 15 24 8 13 - - 0.0
17/06:30pm 10.8 6.8 2.6 57 3.5 NW 13 19 7 10 - - 0.0
17/06:00pm 10.9 6.6 3.0 58 3.4 NW 15 22 8 12 - - 0.0
17/05:30pm 11.6 7.9 2.1 52 4.1 WNW 11 19 6 10 - - 0.0

Latest Capital City Observations: Canberra | Sydney | Melbourne | Brisbane | Adelaide | Perth | Hobart | Darwin

Other Formats:

Comma delimited format used in spreadsheet applications
http://www.bom.gov.au/fwo/IDN60901/IDN60901.94763.axf

JavaScript Object Notation format (JSON) in row-major order
http://www.bom.gov.au/fwo/IDN60901/IDN60901.94763.json